createdAt,value
2018-06-13T00:02:46.916Z,4.5
2018-06-13T00:05:46.970Z,4.4
2018-06-13T00:08:46.990Z,4.3
2018-06-13T00:11:47.013Z,4.4
2018-06-13T00:14:47.009Z,4.4
2018-06-13T00:17:47.076Z,4.3
2018-06-13T00:20:47.089Z,4.3
2018-06-13T00:23:46.933Z,4.3
2018-06-13T00:26:47.058Z,4.4
2018-06-13T00:29:46.988Z,4.3
2018-06-13T00:32:47.071Z,4.2
2018-06-13T00:35:47.035Z,4.1
2018-06-13T00:38:47.052Z,4.2
2018-06-13T00:41:47.067Z,4.2
2018-06-13T00:44:47.244Z,4.1
2018-06-13T00:47:46.865Z,4.2
2018-06-13T00:50:47.005Z,4.4
2018-06-13T00:53:46.888Z,4.3
2018-06-13T00:56:47.054Z,4.4
2018-06-13T00:59:46.961Z,4.4
2018-06-13T01:02:46.917Z,4.1
2018-06-13T01:05:46.989Z,4.1
2018-06-13T01:08:46.882Z,4.1
2018-06-13T01:11:46.913Z,4
2018-06-13T01:14:46.974Z,4.1
2018-06-13T01:17:47.042Z,4.1
2018-06-13T01:20:47.074Z,4
2018-06-13T01:23:46.933Z,4.1
2018-06-13T01:26:47.013Z,4
2018-06-13T01:29:46.927Z,4
2018-06-13T01:32:47.142Z,4
2018-06-13T01:35:47.045Z,4
2018-06-13T01:38:46.861Z,4.1
2018-06-13T01:41:46.945Z,4.1
2018-06-13T01:44:47.052Z,3.9
2018-06-13T01:47:47.036Z,3.9
2018-06-13T01:50:47.165Z,3.9
2018-06-13T01:53:46.996Z,4
2018-06-13T01:56:46.906Z,4
2018-06-13T01:59:46.900Z,3.9
2018-06-13T02:02:47.021Z,3.9
2018-06-13T02:05:46.995Z,3.9
2018-06-13T02:08:46.992Z,3.9
2018-06-13T02:11:46.894Z,4
2018-06-13T02:14:46.987Z,4
2018-06-13T02:17:46.919Z,4
2018-06-13T02:20:46.919Z,3.8
2018-06-13T02:23:46.925Z,3.8
2018-06-13T02:26:46.881Z,3.8
2018-06-13T02:29:46.894Z,3.8
2018-06-13T02:32:46.973Z,3.8
2018-06-13T02:35:47.013Z,3.9
2018-06-13T02:38:47.048Z,4
2018-06-13T02:41:46.859Z,3.9
2018-06-13T02:44:46.849Z,3.8
2018-06-13T02:47:46.938Z,3.8
2018-06-13T02:50:46.957Z,3.8
2018-06-13T02:53:46.891Z,3.8
2018-06-13T02:56:47.039Z,3.8
2018-06-13T02:59:46.935Z,3.8
2018-06-13T03:02:46.932Z,3.8
2018-06-13T03:05:47.048Z,3.8
2018-06-13T03:08:46.803Z,3.8
2018-06-13T03:11:47.019Z,3.9
2018-06-13T03:14:46.959Z,3.9
2018-06-13T03:17:46.907Z,3.9
2018-06-13T03:20:47.376Z,3.9
2018-06-13T03:23:46.952Z,3.9
2018-06-13T03:26:46.961Z,3.8
2018-06-13T03:29:46.935Z,3.7
2018-06-13T03:32:47.051Z,3.8
2018-06-13T03:35:47.222Z,3.9
2018-06-13T03:38:47.140Z,3.9
2018-06-13T03:41:46.963Z,4
2018-06-13T03:44:47.104Z,3.9
2018-06-13T03:47:47.061Z,3.9
2018-06-13T03:50:46.829Z,3.9
2018-06-13T03:53:47.131Z,3.8
2018-06-13T03:56:47.250Z,3.7
2018-06-13T03:59:46.787Z,3.7
2018-06-13T04:02:46.900Z,4.6
2018-06-13T04:05:46.986Z,4.7
2018-06-13T04:08:46.876Z,4.5
2018-06-13T04:11:46.782Z,4.1
2018-06-13T04:14:46.755Z,3.9
2018-06-13T04:17:46.837Z,3.9
2018-06-13T04:20:46.771Z,3.8
2018-06-13T04:23:46.991Z,3.7
2018-06-13T04:26:46.789Z,3.8
2018-06-13T04:29:46.785Z,3.8
2018-06-13T04:32:46.967Z,3.7
2018-06-13T04:35:47.404Z,3.7
2018-06-13T04:38:46.874Z,3.7
2018-06-13T04:41:47.016Z,3.8
2018-06-13T04:44:47.026Z,3.8
2018-06-13T04:47:46.760Z,4
2018-06-13T04:50:46.993Z,3.8
2018-06-13T04:53:46.904Z,3.7
2018-06-13T04:56:46.835Z,3.8
2018-06-13T04:59:46.952Z,3.8
2018-06-13T05:02:47.236Z,3.7
2018-06-13T05:05:46.834Z,3.6
2018-06-13T05:08:46.795Z,3.6
2018-06-13T05:11:46.973Z,3.6
2018-06-13T05:14:47.164Z,3.6
2018-06-13T05:17:47.068Z,3.6
2018-06-13T05:20:46.997Z,3.7
2018-06-13T05:23:46.948Z,3.6
2018-06-13T05:26:46.841Z,3.6
2018-06-13T05:29:46.898Z,3.7
2018-06-13T05:32:46.979Z,3.7
2018-06-13T05:35:47.011Z,3.6
2018-06-13T05:38:46.909Z,3.7
2018-06-13T05:41:47.054Z,3.7
2018-06-13T05:44:46.911Z,3.7
2018-06-13T05:47:46.737Z,3.7
2018-06-13T05:50:46.850Z,3.6
2018-06-13T05:53:46.890Z,3.6
2018-06-13T05:56:47.036Z,3.7
2018-06-13T05:59:46.852Z,3.6
2018-06-13T06:02:47.258Z,3.6
2018-06-13T06:05:46.857Z,3.6
2018-06-13T06:08:46.777Z,3.4
2018-06-13T06:11:46.873Z,3.7
2018-06-13T06:14:46.957Z,6
2018-06-13T06:17:46.933Z,6.4
2018-06-13T06:20:46.912Z,8
2018-06-13T06:23:46.940Z,7.2
2018-06-13T06:26:46.862Z,6.8
2018-06-13T06:29:46.896Z,6.4
2018-06-13T06:32:46.996Z,6.1
2018-06-13T06:35:46.924Z,5.8
2018-06-13T06:38:46.972Z,5.5
2018-06-13T06:41:47.017Z,5.1
2018-06-13T06:44:46.947Z,8.2
2018-06-13T06:47:46.961Z,6.8
2018-06-13T06:50:46.791Z,7.5
2018-06-13T06:53:46.890Z,7.1
2018-06-13T06:56:46.866Z,7.6
2018-06-13T06:59:46.942Z,7.6
2018-06-13T07:02:47.725Z,7.6
2018-06-13T07:05:46.856Z,7.2
2018-06-13T07:08:47.001Z,8.7
2018-06-13T07:11:46.857Z,7.8
2018-06-13T07:14:46.949Z,7.7
2018-06-13T07:17:46.939Z,7.9
2018-06-13T07:20:47.148Z,7.2
2018-06-13T07:23:46.847Z,7.3
2018-06-13T07:26:47.018Z,8.1
2018-06-13T07:29:46.795Z,8.1
2018-06-13T07:32:46.875Z,8.4
2018-06-13T07:35:46.945Z,7.5
2018-06-13T07:38:46.722Z,7.5
2018-06-13T07:41:46.813Z,8.4
2018-06-13T07:44:46.896Z,7.7
2018-06-13T07:48:01.233Z,7.3
2018-06-13T07:50:46.942Z,8.6
2018-06-13T07:53:46.699Z,8.8
2018-06-13T07:56:46.780Z,7.5
2018-06-13T07:59:46.778Z,7.4
2018-06-13T08:02:46.807Z,7.6
2018-06-13T08:05:46.764Z,7.6
2018-06-13T08:08:47.606Z,6.5
2018-06-13T08:11:46.995Z,5.8
2018-06-13T08:14:46.959Z,6.9
2018-06-13T08:17:46.895Z,6.3
2018-06-13T08:20:46.845Z,6
2018-06-13T08:23:46.841Z,5.9
2018-06-13T08:26:46.772Z,6.4
2018-06-13T08:29:46.790Z,6
2018-06-13T08:32:46.766Z,6.2
2018-06-13T08:35:47.144Z,5.7
2018-06-13T08:38:46.903Z,6.3
2018-06-13T08:41:46.917Z,6.4
2018-06-13T08:44:46.753Z,6.5
2018-06-13T08:47:47.124Z,6
2018-06-13T08:50:46.833Z,5.3
2018-06-13T08:53:46.782Z,5.4
2018-06-13T08:56:46.841Z,5.5
2018-06-13T08:59:46.941Z,5.2
2018-06-13T09:02:46.881Z,5.7
2018-06-13T09:05:46.735Z,5.1
2018-06-13T09:08:46.728Z,4.7
2018-06-13T09:11:46.904Z,4.6
2018-06-13T09:14:46.879Z,4.6
2018-06-13T09:17:46.794Z,4.5
2018-06-13T09:20:46.797Z,4.5
2018-06-13T09:23:47.027Z,4.4
2018-06-13T09:26:46.783Z,5
2018-06-13T09:29:46.795Z,4.7
2018-06-13T09:32:46.741Z,4.3
2018-06-13T09:35:46.804Z,4.3
2018-06-13T09:38:46.819Z,4.3
2018-06-13T09:41:46.734Z,4.2
2018-06-13T09:44:46.950Z,4.4
2018-06-13T09:47:46.702Z,4.6
2018-06-13T09:50:46.896Z,4.3
2018-06-13T09:53:46.658Z,4.2
2018-06-13T09:56:47.401Z,4.3
2018-06-13T09:59:46.885Z,4.3
2018-06-13T10:02:46.757Z,4.1
2018-06-13T10:05:46.813Z,4.3
2018-06-13T10:08:48.208Z,4.2
2018-06-13T10:11:46.884Z,4.2
2018-06-13T10:14:46.934Z,4.1
2018-06-13T10:17:46.933Z,4
2018-06-13T10:20:46.837Z,4
2018-06-13T10:23:46.758Z,4
2018-06-13T10:26:46.975Z,4
2018-06-13T10:29:46.899Z,3.9
2018-06-13T10:32:46.940Z,4
2018-06-13T10:35:46.830Z,4.1
2018-06-13T10:38:46.865Z,4
2018-06-13T10:41:46.851Z,3.9
2018-06-13T10:44:46.745Z,3.7
2018-06-13T10:47:46.844Z,3.7
2018-06-13T10:50:46.953Z,3.7
2018-06-13T10:53:46.847Z,3.7
2018-06-13T10:56:46.913Z,3.7
2018-06-13T10:59:46.913Z,3.7
2018-06-13T11:02:46.677Z,3.7
2018-06-13T11:05:46.961Z,3.6
2018-06-13T11:08:46.743Z,3.6
2018-06-13T11:11:47.039Z,3.6
2018-06-13T11:14:46.994Z,3.6
2018-06-13T11:17:46.766Z,3.5
2018-06-13T11:20:46.869Z,3.4
2018-06-13T11:23:46.927Z,3.5
2018-06-13T11:26:46.722Z,3.5
2018-06-13T11:29:46.803Z,3.4
2018-06-13T11:32:46.798Z,3.4
2018-06-13T11:35:46.791Z,3.4
2018-06-13T11:38:46.759Z,3.5
2018-06-13T11:41:46.694Z,3.6
2018-06-13T11:44:46.719Z,3.5
2018-06-13T11:47:46.847Z,3.3
2018-06-13T11:50:46.794Z,3.3
2018-06-13T11:53:46.846Z,3.6
2018-06-13T11:56:46.793Z,3.5
2018-06-13T11:59:47.143Z,3.4
2018-06-13T12:02:47.002Z,3.4
2018-06-13T12:05:46.937Z,3.4
2018-06-13T12:08:46.919Z,3.3
2018-06-13T12:11:46.896Z,3.3
2018-06-13T12:14:46.904Z,3.3
2018-06-13T12:17:46.762Z,3.2
2018-06-13T12:20:46.729Z,3.2
2018-06-13T12:23:46.979Z,3.2
2018-06-13T12:26:46.734Z,3.3
2018-06-13T12:29:46.787Z,3.2
2018-06-13T12:32:46.801Z,3.1
2018-06-13T12:35:46.898Z,3.1
2018-06-13T12:38:46.868Z,3.2
2018-06-13T12:41:46.751Z,3.2
2018-06-13T12:44:46.792Z,3.1
2018-06-13T12:47:46.747Z,3.2
2018-06-13T12:50:47.202Z,3.4
2018-06-13T12:53:47.015Z,3.5
2018-06-13T12:56:46.686Z,3.6
2018-06-13T12:59:46.660Z,3.6
2018-06-13T13:02:46.873Z,3.9
2018-06-13T13:05:46.824Z,4.6
2018-06-13T13:08:46.651Z,6.2
2018-06-13T13:11:46.948Z,5.8
2018-06-13T13:14:46.895Z,5.7
2018-06-13T13:17:46.927Z,5.2
2018-06-13T13:20:46.739Z,6.4
2018-06-13T13:23:46.835Z,6.4
2018-06-13T13:26:46.824Z,7.8
2018-06-13T13:29:46.727Z,6.5
2018-06-13T13:32:46.793Z,7.2
2018-06-13T13:35:47.807Z,6.3
2018-06-13T13:38:46.895Z,5.3
2018-06-13T13:41:46.850Z,6.9
2018-06-13T13:44:46.899Z,9.2
2018-06-13T13:47:46.807Z,7.2
2018-06-13T13:50:46.815Z,7.1
2018-06-13T13:53:48.261Z,7
2018-06-13T13:56:46.764Z,7.5
2018-06-13T13:59:46.839Z,8.3
2018-06-13T14:02:46.859Z,8.1
2018-06-13T14:05:46.885Z,10.3
2018-06-13T14:08:47.062Z,10.3
2018-06-13T14:11:47.038Z,11.1
2018-06-13T14:14:46.962Z,11.6
2018-06-13T14:17:46.864Z,17.7
2018-06-13T14:20:46.827Z,14
2018-06-13T14:23:46.614Z,11.2
2018-06-13T14:26:46.712Z,8.3
2018-06-13T14:29:46.614Z,8.1
2018-06-13T14:32:46.807Z,8.3
2018-06-13T14:35:46.649Z,9.1
2018-06-13T14:38:46.721Z,9.2
2018-06-13T14:41:46.652Z,7.3
2018-06-13T14:44:46.677Z,6.9
2018-06-13T14:47:47.030Z,6.3
2018-06-13T14:50:46.862Z,10.5
2018-06-13T14:53:46.693Z,11
2018-06-13T14:56:47.493Z,8.6
2018-06-13T14:59:47.095Z,7
2018-06-13T15:02:46.655Z,7.3
2018-06-13T15:05:46.962Z,8
2018-06-13T15:08:46.611Z,9
2018-06-13T15:11:46.689Z,8
2018-06-13T15:14:46.857Z,7.3
2018-06-13T15:17:46.830Z,8
2018-06-13T15:20:46.589Z,7.3
2018-06-13T15:23:46.824Z,9.1
2018-06-13T15:26:46.969Z,10
2018-06-13T15:29:46.786Z,8.5
2018-06-13T15:32:46.784Z,18.1
2018-06-13T15:35:46.763Z,13.2
2018-06-13T15:38:46.640Z,11.3
2018-06-13T15:41:46.639Z,10.7
2018-06-13T15:44:47.245Z,12
2018-06-13T15:47:46.606Z,11.5
2018-06-13T15:50:46.873Z,9.3
2018-06-13T15:53:46.792Z,9.3
2018-06-13T15:56:46.648Z,7.5
2018-06-13T15:59:46.957Z,7.2
2018-06-13T16:02:46.865Z,7.1
2018-06-13T16:05:46.570Z,7.6
2018-06-13T16:08:46.825Z,6.7
2018-06-13T16:11:46.870Z,7.1
2018-06-13T16:14:46.603Z,6.7
2018-06-13T16:17:46.698Z,6.1
2018-06-13T16:20:46.773Z,6
2018-06-13T16:23:47.690Z,6.3
2018-06-13T16:26:46.759Z,6.3
2018-06-13T16:29:46.687Z,6.1
2018-06-13T16:32:46.755Z,6
2018-06-13T16:35:47.377Z,5.2
2018-06-13T16:38:46.863Z,5.1
2018-06-13T16:41:46.933Z,5.9
2018-06-13T16:44:46.629Z,4.9
2018-06-13T16:47:46.781Z,4.7
2018-06-13T16:50:46.780Z,4.5
2018-06-13T16:53:46.895Z,4.2
2018-06-13T16:56:46.837Z,4.3
2018-06-13T16:59:46.838Z,4.4
2018-06-13T17:02:46.789Z,4.3
2018-06-13T17:05:46.818Z,4.4
2018-06-13T17:08:46.798Z,4.2
2018-06-13T17:11:46.563Z,4
2018-06-13T17:14:46.564Z,3.8
2018-06-13T17:17:46.806Z,4
2018-06-13T17:20:46.871Z,4.4
2018-06-13T17:23:46.645Z,4.6
2018-06-13T17:26:46.643Z,4.9
2018-06-13T17:29:46.662Z,5.7
2018-06-13T17:32:46.732Z,6.1
2018-06-13T17:35:46.663Z,5.9
2018-06-13T17:38:46.859Z,5.2
2018-06-13T17:41:46.731Z,6.6
2018-06-13T17:44:46.835Z,6
2018-06-13T17:47:46.595Z,6.8
2018-06-13T17:50:47.357Z,6
2018-06-13T17:53:46.750Z,6.6
2018-06-13T17:56:46.744Z,7
2018-06-13T17:59:46.748Z,6
2018-06-13T18:02:46.770Z,4.9
2018-06-13T18:05:46.728Z,4.9
2018-06-13T18:08:46.889Z,5.1
2018-06-13T18:11:46.632Z,5.1
2018-06-13T18:14:46.735Z,6.6
2018-06-13T18:17:46.793Z,6.2
2018-06-13T18:20:46.661Z,6.3
2018-06-13T18:23:46.774Z,7.1
2018-06-13T18:26:46.634Z,7.9
2018-06-13T18:29:46.934Z,9.1
2018-06-13T18:32:46.644Z,11.5
2018-06-13T18:35:46.768Z,10.8
2018-06-13T18:38:46.864Z,11.3
2018-06-13T18:41:46.903Z,11
2018-06-13T18:44:46.869Z,12.6
2018-06-13T18:47:46.879Z,11.7
2018-06-13T18:50:46.687Z,10.7
2018-06-13T18:53:46.682Z,9.5
2018-06-13T18:56:46.719Z,7.6
2018-06-13T18:59:46.663Z,7.3
2018-06-13T19:02:46.786Z,7.6
2018-06-13T19:05:46.566Z,7.6
2018-06-13T19:08:46.605Z,7.1
2018-06-13T19:11:46.706Z,7.7
2018-06-13T19:14:46.767Z,7.2
2018-06-13T19:17:47.104Z,7.3
2018-06-13T19:20:46.671Z,6.1
2018-06-13T19:23:46.687Z,7.2
2018-06-13T19:26:46.734Z,7
2018-06-13T19:29:46.598Z,7.1
2018-06-13T19:32:46.742Z,7.4
2018-06-13T19:35:46.616Z,6.7
2018-06-13T19:38:46.813Z,8.2
2018-06-13T19:41:46.647Z,7.6
2018-06-13T19:44:47.278Z,6.7
2018-06-13T19:47:46.794Z,6.7
2018-06-13T19:50:46.574Z,7.5
2018-06-13T19:53:46.606Z,6.5
2018-06-13T19:56:46.638Z,6
2018-06-13T19:59:46.562Z,5.6
2018-06-13T20:02:46.859Z,5.4
2018-06-13T20:05:46.581Z,6.3
2018-06-13T20:08:46.711Z,6.1
2018-06-13T20:11:46.725Z,5.8
2018-06-13T20:14:46.700Z,5
2018-06-13T20:17:46.565Z,4.4
2018-06-13T20:20:46.551Z,4.7
2018-06-13T20:23:46.734Z,4.7
2018-06-13T20:26:46.815Z,6.3
2018-06-13T20:29:46.718Z,5.8
2018-06-13T20:32:46.596Z,5.4
2018-06-13T20:35:46.592Z,5.6
2018-06-13T20:38:46.661Z,4.9
2018-06-13T20:41:46.787Z,4.9
2018-06-13T20:44:46.478Z,4.1
2018-06-13T20:47:46.718Z,4.2
2018-06-13T20:50:46.710Z,4.8
2018-06-13T20:53:46.865Z,4.8
2018-06-13T20:56:46.637Z,4
2018-06-13T20:59:46.778Z,3.7
2018-06-13T21:02:46.627Z,3.5
2018-06-13T21:05:46.697Z,3.3
2018-06-13T21:08:46.604Z,4
2018-06-13T21:11:46.574Z,3.8
2018-06-13T21:14:47.256Z,3.7
2018-06-13T21:17:46.841Z,3.5
2018-06-13T21:20:46.860Z,3.4
2018-06-13T21:23:46.556Z,3.2
2018-06-13T21:26:47.204Z,3.5
2018-06-13T21:29:46.664Z,3.4
2018-06-13T21:32:46.726Z,3.3
2018-06-13T21:35:46.602Z,3.5
2018-06-13T21:38:46.613Z,3.4
2018-06-13T21:41:46.690Z,3.3
2018-06-13T21:44:46.699Z,3.1
2018-06-13T21:47:46.611Z,3
2018-06-13T21:50:46.620Z,3.3
2018-06-13T21:53:46.751Z,3.4
2018-06-13T21:56:46.815Z,3.6
2018-06-13T21:59:46.620Z,4.1
2018-06-13T22:02:46.950Z,4
2018-06-13T22:05:46.523Z,3.9
2018-06-13T22:08:46.545Z,3.7
2018-06-13T22:11:46.598Z,3.4
2018-06-13T22:14:46.543Z,3.4
2018-06-13T22:17:46.643Z,3.3
2018-06-13T22:20:46.835Z,3.2
2018-06-13T22:23:47.009Z,3.6
2018-06-13T22:26:46.724Z,3.3
2018-06-13T22:29:46.526Z,3.2
2018-06-13T22:32:46.497Z,3.4
2018-06-13T22:35:46.907Z,3.2
2018-06-13T22:38:46.535Z,3.2
2018-06-13T22:41:46.427Z,3.2
2018-06-13T22:44:46.738Z,3.1
2018-06-13T22:47:47.812Z,3
2018-06-13T22:50:56.538Z,3.2
2018-06-13T22:53:46.592Z,3.2
2018-06-13T22:56:46.710Z,3.1
2018-06-13T22:59:46.684Z,3.1
2018-06-13T23:02:46.711Z,3.1
2018-06-13T23:05:46.873Z,3.2
2018-06-13T23:08:46.616Z,3.1
2018-06-13T23:11:46.691Z,3.1
2018-06-13T23:14:46.638Z,3.1
2018-06-13T23:17:46.783Z,3.2
2018-06-13T23:20:46.599Z,3.2
2018-06-13T23:23:46.521Z,3
2018-06-13T23:26:47.588Z,3
2018-06-13T23:29:46.639Z,2.9
2018-06-13T23:32:46.551Z,3
2018-06-13T23:35:46.830Z,3.1
2018-06-13T23:38:46.842Z,3.4
2018-06-13T23:41:46.580Z,3.3
2018-06-13T23:44:46.652Z,3.2
2018-06-13T23:47:46.690Z,3.1
2018-06-13T23:50:46.665Z,3
2018-06-13T23:53:46.536Z,3.1
2018-06-13T23:56:46.526Z,3.1
2018-06-13T23:59:46.489Z,3.2
